Aviation Digital Data Service (ADDS)

Output produced by TAFs form (1603 UTC 20 May 2018)
found at http://aviationweather.gov/adds/tafs/
 
METAR text: WSSL 201600Z 00000KT 9999 FEW016 BKN300 27/24 Q1008 RMK 1430Z Q1009
Conditions at: WSSL (SINGAPORE/SELETA, SG) observed 1600 UTC 20 May 2018
Temperature: 27.0°C (81°F)
Dewpoint: 24.0°C (75°F) [RH = 84%]
Pressure (altimeter): 29.76 inches Hg (1008.0 mb)
Winds: calm
Visibility: 6 or more miles (10+ km)
Ceiling: 30000 feet AGL
Clouds: few clouds at 1600 feet AGL
broken clouds at 30000 feet AGL
Weather: no significant weather observed at this time

Forecast for: WSSL (SINGAPORE/SELETA, SG)
Text: TAF WSSL 201100Z 2012/2118 19007KT 9999 FEW018CB SCT020
Forecast period: 1200 UTC 20 May 2018 to 1800 UTC 21 May 2018
Forecast type: FROM: standard forecast or significant change
Winds: from the S (190 degrees) at 8 MPH (7 knots; 3.6 m/s)
Visibility: 6 or more miles (10+ km)
Clouds: few clouds at 1800 feet AGL
scattered clouds at 2000 feet AGL
Weather: no significant weather forecast for this period
Text: TEMPO 2103/2107 3000 TSRA FEW012CB BKN015
Forecast period: 0300 to 0700 UTC 21 May 2018
Forecast type: TEMPORARY: The following changes expected for less than half the time period
Visibility: 1.86 miles (2.99 km)
Ceiling: 1500 feet AGL
Clouds: few clouds at 1200 feet AGL
broken clouds at 1500 feet AGL
Weather: TSRA  (rain associated with thunderstorm(s))